createdAt,value
2023-04-29T00:00:01.395Z,532.7
2023-04-29T00:01:03.217Z,532.9
2023-04-29T00:02:05.419Z,532.4
2023-04-29T00:03:08.250Z,532.7
2023-04-29T00:04:11.023Z,532.7
2023-04-29T00:05:14.493Z,532.8
2023-04-29T00:06:17.298Z,533.1
2023-04-29T00:07:19.223Z,532.9
2023-04-29T00:08:20.968Z,533.4
2023-04-29T00:09:22.830Z,533.1
2023-04-29T00:10:24.678Z,533.2
2023-04-29T00:11:26.519Z,533.6
2023-04-29T00:12:28.293Z,533.6
2023-04-29T00:13:30.122Z,533.5
2023-04-29T00:14:32.077Z,533.2
2023-04-29T00:15:33.948Z,532.7
2023-04-29T00:16:35.994Z,532.9
2023-04-29T00:17:38.183Z,532.9
2023-04-29T00:18:40.107Z,532.7
2023-04-29T00:19:42.047Z,532.7
2023-04-29T00:20:44.103Z,532.5
2023-04-29T00:21:45.951Z,532.4
2023-04-29T00:22:47.699Z,532.3
2023-04-29T00:23:49.436Z,532.4
2023-04-29T00:24:51.296Z,532.4
2023-04-29T00:25:53.147Z,532.1
2023-04-29T00:26:55.000Z,532.5
2023-04-29T00:27:56.857Z,532.3
2023-04-29T00:28:58.689Z,532.1
2023-04-29T00:30:00.649Z,532.1
2023-04-29T00:31:02.640Z,532
2023-04-29T00:32:04.750Z,532
2023-04-29T00:33:06.825Z,532.1
2023-04-29T00:34:08.871Z,532
2023-04-29T00:35:10.774Z,531.5
2023-04-29T00:36:12.556Z,531.6
2023-04-29T00:37:14.407Z,531.3
2023-04-29T00:38:16.168Z,531.7
2023-04-29T00:39:18.111Z,531.6
2023-04-29T00:40:20.055Z,531.7
2023-04-29T00:41:21.911Z,531.5
2023-04-29T00:42:23.752Z,531.7
2023-04-29T00:43:25.511Z,531.5
2023-04-29T00:44:27.485Z,531.4
2023-04-29T00:45:32.008Z,531.4
2023-04-29T00:46:34.083Z,531.8
2023-04-29T00:47:36.093Z,531.8
2023-04-29T00:48:37.915Z,531.9
2023-04-29T00:49:39.783Z,532
2023-04-29T00:50:41.654Z,532.1
2023-04-29T00:51:46.044Z,532.4
2023-04-29T00:52:47.902Z,532.5
2023-04-29T00:53:50.354Z,532.4
2023-04-29T00:54:52.096Z,532.8
2023-04-29T00:55:53.970Z,532.8
2023-04-29T00:56:55.815Z,532.8
2023-04-29T00:57:57.604Z,532.9
2023-04-29T00:58:59.481Z,533.3
2023-04-29T01:00:01.471Z,533.2
2023-04-29T01:01:03.530Z,533.8
2023-04-29T01:02:05.280Z,534
2023-04-29T01:03:07.806Z,534.2
2023-04-29T01:04:10.759Z,534.5
2023-04-29T01:05:12.758Z,534.6
2023-04-29T01:06:14.633Z,534.8
2023-04-29T01:07:16.455Z,535
2023-04-29T01:08:19.208Z,535.1
2023-04-29T01:09:21.093Z,535.2
2023-04-29T01:10:23.141Z,535.7
2023-04-29T01:11:24.795Z,535.2
2023-04-29T01:12:26.735Z,535.6
2023-04-29T01:13:28.454Z,535.3
2023-04-29T01:14:30.445Z,535
2023-04-29T01:15:32.282Z,535.5
2023-04-29T01:16:34.505Z,535.3
2023-04-29T01:17:36.570Z,535.4
2023-04-29T01:18:38.455Z,535.4
2023-04-29T01:19:40.408Z,535.5
2023-04-29T01:20:42.261Z,535.2
2023-04-29T01:21:44.205Z,535.5
2023-04-29T01:22:46.062Z,535.1
2023-04-29T01:23:47.878Z,535.2
2023-04-29T01:24:49.784Z,535.5
2023-04-29T01:25:51.612Z,535.6
2023-04-29T01:26:53.570Z,535.7
2023-04-29T01:27:55.308Z,535.7
2023-04-29T01:28:57.152Z,535.6
2023-04-29T01:29:59.107Z,536.1
2023-04-29T01:31:01.047Z,535.8
2023-04-29T01:32:03.021Z,536
2023-04-29T01:33:05.099Z,535.7
2023-04-29T01:34:07.029Z,536
2023-04-29T01:35:08.711Z,535.9
2023-04-29T01:36:10.521Z,536
2023-04-29T01:37:12.471Z,535.8
2023-04-29T01:38:14.260Z,535.9
2023-04-29T01:39:16.167Z,535.7
2023-04-29T01:40:17.923Z,535.8
2023-04-29T01:41:19.692Z,535.7
2023-04-29T01:42:21.507Z,535.8
2023-04-29T01:43:23.355Z,535.8
2023-04-29T01:44:25.191Z,535.7
2023-04-29T01:45:27.065Z,535.8
2023-04-29T01:46:29.136Z,535.7
2023-04-29T01:47:31.096Z,535.7
2023-04-29T01:48:32.948Z,535.8
2023-04-29T01:49:34.880Z,536.1
2023-04-29T01:50:36.721Z,536.2
2023-04-29T01:51:38.461Z,536.3
2023-04-29T01:52:40.414Z,536
2023-04-29T01:53:42.154Z,535.8
2023-04-29T01:54:43.913Z,535.8
2023-04-29T01:55:45.737Z,535.9
2023-04-29T01:56:47.525Z,535.7
2023-04-29T01:57:49.478Z,536.3
2023-04-29T01:58:51.410Z,536.4
2023-04-29T01:59:54.305Z,536.7
2023-04-29T02:00:56.530Z,536.5
2023-04-29T02:01:58.407Z,536.9
2023-04-29T02:03:00.780Z,536.5
2023-04-29T02:04:03.755Z,536.5
2023-04-29T02:05:05.693Z,536.2
2023-04-29T02:06:07.546Z,536.1
2023-04-29T02:07:09.632Z,536
2023-04-29T02:08:11.569Z,536.1
2023-04-29T02:09:13.716Z,536
2023-04-29T02:10:15.649Z,535.9
2023-04-29T02:11:17.433Z,535.9
2023-04-29T02:12:22.123Z,535.6
2023-04-29T02:13:23.969Z,535.7
2023-04-29T02:14:25.919Z,535.8
2023-04-29T02:15:27.879Z,535.6
2023-04-29T02:16:30.071Z,535.6
2023-04-29T02:17:32.130Z,535.2
2023-04-29T02:18:33.936Z,535.5
2023-04-29T02:19:35.919Z,535.6
2023-04-29T02:20:37.751Z,536
2023-04-29T02:21:39.598Z,535.3
2023-04-29T02:22:41.354Z,535.7
2023-04-29T02:23:43.297Z,535.6
2023-04-29T02:24:45.258Z,535.5
2023-04-29T02:25:47.110Z,535.6
2023-04-29T02:26:49.046Z,535.2
2023-04-29T02:27:53.363Z,535.6
2023-04-29T02:28:55.202Z,535.5
2023-04-29T02:29:57.055Z,535.4
2023-04-29T02:30:58.923Z,535.5
2023-04-29T02:32:00.928Z,535.7
2023-04-29T02:33:03.151Z,535.7
2023-04-29T02:34:04.910Z,535.4
2023-04-29T02:35:06.744Z,535.4
2023-04-29T02:36:08.500Z,535.6
2023-04-29T02:37:10.415Z,535.3
2023-04-29T02:38:12.562Z,535.4
2023-04-29T02:39:14.408Z,535.3
2023-04-29T02:40:18.878Z,535.3
2023-04-29T02:41:20.682Z,535.6
2023-04-29T02:42:22.534Z,535.5
2023-04-29T02:43:24.279Z,535.6
2023-04-29T02:44:25.903Z,535.7
2023-04-29T02:45:27.681Z,535.9
2023-04-29T02:46:29.928Z,535.6
2023-04-29T02:47:32.014Z,535.9
2023-04-29T02:48:33.731Z,535.9
2023-04-29T02:49:35.377Z,535.7
2023-04-29T02:50:37.252Z,535.7
2023-04-29T02:51:39.079Z,535.7
2023-04-29T02:52:40.941Z,535.6
2023-04-29T02:53:42.703Z,535.4
2023-04-29T02:54:44.629Z,535.3
2023-04-29T02:55:46.479Z,535.3
2023-04-29T02:56:48.341Z,535.1
2023-04-29T02:57:50.178Z,534.9
2023-04-29T02:58:52.141Z,535
2023-04-29T02:59:54.840Z,534.9
2023-04-29T03:00:56.894Z,534.8
2023-04-29T03:02:01.259Z,534.5
2023-04-29T03:03:03.952Z,534.1
2023-04-29T03:04:06.536Z,533.7
2023-04-29T03:05:08.342Z,533.4
2023-04-29T03:06:10.225Z,533
2023-04-29T03:07:12.049Z,532.7
2023-04-29T03:08:13.879Z,532.8
2023-04-29T03:09:15.866Z,532.7
2023-04-29T03:10:17.808Z,532.5
2023-04-29T03:11:19.738Z,532.5
2023-04-29T03:12:21.612Z,532.8
2023-04-29T03:13:23.468Z,532.8
2023-04-29T03:14:25.425Z,532.8
2023-04-29T03:15:27.193Z,533.1
2023-04-29T03:16:29.380Z,532.9
2023-04-29T03:17:31.480Z,533.3
2023-04-29T03:18:33.337Z,533.6
2023-04-29T03:19:35.302Z,533.4
2023-04-29T03:20:37.134Z,533.5
2023-04-29T03:21:39.010Z,533.8
2023-04-29T03:22:40.936Z,533.5
2023-04-29T03:23:42.884Z,533.6
2023-04-29T03:24:44.844Z,533.1
2023-04-29T03:25:46.977Z,533.1
2023-04-29T03:26:48.851Z,533.3
2023-04-29T03:27:50.691Z,532.9
2023-04-29T03:28:52.499Z,533
2023-04-29T03:29:55.350Z,533.1
2023-04-29T03:30:57.501Z,533.1
2023-04-29T03:31:59.579Z,532.6
2023-04-29T03:33:01.746Z,532.6
2023-04-29T03:34:03.636Z,532.4
2023-04-29T03:35:05.491Z,532.3
2023-04-29T03:36:10.140Z,532
2023-04-29T03:37:11.971Z,531.4
2023-04-29T03:38:13.695Z,531.3
2023-04-29T03:39:15.551Z,531
2023-04-29T03:40:17.503Z,530.8
2023-04-29T03:41:19.345Z,530.6
2023-04-29T03:42:21.201Z,530.3
2023-04-29T03:43:23.048Z,530.4
2023-04-29T03:44:24.894Z,530.2
2023-04-29T03:45:26.858Z,530
2023-04-29T03:46:29.006Z,530.2
2023-04-29T03:47:31.286Z,529.6
2023-04-29T03:48:33.320Z,529.8
2023-04-29T03:49:35.080Z,529.5
2023-04-29T03:50:36.952Z,529.3
2023-04-29T03:51:38.784Z,530
2023-04-29T03:52:40.757Z,529.7
2023-04-29T03:53:42.578Z,530
2023-04-29T03:54:44.425Z,530.3
2023-04-29T03:55:46.384Z,530.4
2023-04-29T03:56:48.154Z,530.4
2023-04-29T03:57:49.985Z,530.6
2023-04-29T03:58:51.928Z,530.7
2023-04-29T03:59:54.881Z,530.9
2023-04-29T04:00:56.851Z,530.6
2023-04-29T04:01:59.034Z,530.7
2023-04-29T04:03:06.512Z,531
2023-04-29T04:04:09.421Z,531
2023-04-29T04:05:12.050Z,531.2
2023-04-29T04:06:13.954Z,531.7
2023-04-29T04:07:15.842Z,531.6
2023-04-29T04:08:17.701Z,531.5
2023-04-29T04:09:19.579Z,531.5
2023-04-29T04:10:21.377Z,531.6
2023-04-29T04:11:23.129Z,531.5
2023-04-29T04:12:24.992Z,531.5
2023-04-29T04:13:26.833Z,531.5
2023-04-29T04:14:28.790Z,531.3
2023-04-29T04:15:30.644Z,531.3
2023-04-29T04:16:32.730Z,530.9
2023-04-29T04:17:34.860Z,530.7
2023-04-29T04:18:36.592Z,530.7
2023-04-29T04:19:38.438Z,530.5
2023-04-29T04:20:40.273Z,530.3
2023-04-29T04:21:42.141Z,530.7
2023-04-29T04:22:43.998Z,530.2
2023-04-29T04:23:45.865Z,530.1
2023-04-29T04:24:47.700Z,530.6
2023-04-29T04:25:49.654Z,530.9
2023-04-29T04:26:51.489Z,531
2023-04-29T04:27:53.461Z,530.9
2023-04-29T04:28:55.301Z,531
2023-04-29T04:29:57.048Z,530.7
2023-04-29T04:30:59.005Z,530.3
2023-04-29T04:32:01.036Z,530.8
2023-04-29T04:33:03.034Z,530.7
2023-04-29T04:34:04.974Z,530.7
2023-04-29T04:35:06.818Z,530.6
2023-04-29T04:36:08.665Z,531.1
2023-04-29T04:37:10.522Z,531.5
2023-04-29T04:38:12.464Z,531.5
2023-04-29T04:39:14.232Z,531.9
2023-04-29T04:40:16.057Z,531.7
2023-04-29T04:41:17.800Z,531.7
2023-04-29T04:42:19.659Z,532.1
2023-04-29T04:43:21.507Z,532.1
2023-04-29T04:44:23.368Z,531.9
2023-04-29T04:45:25.426Z,531.5
2023-04-29T04:46:27.268Z,531.6
2023-04-29T04:47:29.335Z,531.5
2023-04-29T04:48:31.174Z,531.5
2023-04-29T04:49:33.145Z,531.8
2023-04-29T04:50:34.966Z,531.4
2023-04-29T04:51:39.682Z,531
2023-04-29T04:52:41.432Z,530.9
2023-04-29T04:53:43.236Z,530.8
2023-04-29T04:54:48.007Z,530.8
2023-04-29T04:55:49.851Z,530.4
2023-04-29T04:56:51.702Z,530.4
2023-04-29T04:57:53.557Z,530.3
2023-04-29T04:58:55.336Z,530.4
2023-04-29T04:59:57.260Z,530.3
2023-04-29T05:00:59.534Z,530.3
2023-04-29T05:02:01.595Z,530.3
2023-04-29T05:03:04.030Z,530.8
2023-04-29T05:04:06.480Z,530.5
2023-04-29T05:05:08.446Z,530.6
2023-04-29T05:06:10.297Z,530.5
2023-04-29T05:07:12.029Z,530.5
2023-04-29T05:08:13.898Z,531.2
2023-04-29T05:09:15.856Z,531.1
2023-04-29T05:10:17.720Z,531
2023-04-29T05:11:19.549Z,531.4
2023-04-29T05:12:21.404Z,531.6
2023-04-29T05:13:23.173Z,531.5
2023-04-29T05:14:25.093Z,531.8
2023-04-29T05:15:26.956Z,531.8
2023-04-29T05:16:28.939Z,532.4
2023-04-29T05:17:30.954Z,532.3
2023-04-29T05:18:32.802Z,532.6
2023-04-29T05:19:34.555Z,532.6
2023-04-29T05:20:36.517Z,533
2023-04-29T05:21:38.271Z,533
2023-04-29T05:22:40.214Z,533.4
2023-04-29T05:23:42.072Z,533.7
2023-04-29T05:24:44.015Z,533.5
2023-04-29T05:25:45.907Z,534
2023-04-29T05:26:47.812Z,533.9
2023-04-29T05:27:49.578Z,533.8
2023-04-29T05:28:51.402Z,533.6
2023-04-29T05:29:54.451Z,533.8
2023-04-29T05:30:56.775Z,533.8
2023-04-29T05:31:58.594Z,533.5
2023-04-29T05:33:00.780Z,534.3
2023-04-29T05:34:02.694Z,534.3
2023-04-29T05:35:08.149Z,534.3
2023-04-29T05:36:10.083Z,534.7
2023-04-29T05:37:11.950Z,534.8
2023-04-29T05:38:13.897Z,535.4
2023-04-29T05:39:15.745Z,535.3
2023-04-29T05:40:17.590Z,535.1
2023-04-29T05:41:19.470Z,534.7
2023-04-29T05:42:21.186Z,534.8
2023-04-29T05:43:23.047Z,534.4
2023-04-29T05:44:24.785Z,534.3
2023-04-29T05:45:26.735Z,534
2023-04-29T05:46:28.786Z,534.5
2023-04-29T05:47:30.977Z,534.3
2023-04-29T05:48:33.001Z,534.8
2023-04-29T05:49:34.863Z,535
2023-04-29T05:50:36.718Z,535.1
2023-04-29T05:51:38.563Z,535.1
2023-04-29T05:52:40.383Z,535.3
2023-04-29T05:53:42.363Z,535.4
2023-04-29T05:54:44.381Z,535.6
2023-04-29T05:55:46.263Z,535.7
2023-04-29T05:56:48.135Z,535.4
2023-04-29T05:57:50.136Z,535.5
2023-04-29T05:58:52.118Z,535
2023-04-29T05:59:54.833Z,535
2023-04-29T06:01:00.436Z,534.3
2023-04-29T06:02:02.279Z,534.3
2023-04-29T06:03:04.813Z,534
2023-04-29T06:04:07.757Z,534
2023-04-29T06:05:10.971Z,533.8
2023-04-29T06:06:13.422Z,534.2
2023-04-29T06:07:15.325Z,534.3
2023-04-29T06:08:17.090Z,534.6
2023-04-29T06:09:28.953Z,534.3
2023-04-29T06:10:30.705Z,534.3
2023-04-29T06:11:32.553Z,534
2023-04-29T06:12:34.419Z,533.8
2023-04-29T06:13:36.361Z,533.6
2023-04-29T06:14:38.206Z,534
2023-04-29T06:15:40.057Z,534.2
2023-04-29T06:16:42.249Z,534.1
2023-04-29T06:17:44.505Z,534.4
2023-04-29T06:18:46.324Z,535
2023-04-29T06:19:48.179Z,535.1
2023-04-29T06:20:49.836Z,535.1
2023-04-29T06:21:51.763Z,535.3
2023-04-29T06:22:53.467Z,535
2023-04-29T06:23:55.262Z,535.1
2023-04-29T06:24:57.225Z,535
2023-04-29T06:25:59.170Z,535
2023-04-29T06:27:01.020Z,534.9
2023-04-29T06:28:02.889Z,534.6
2023-04-29T06:29:04.745Z,534.5
2023-04-29T06:30:06.567Z,534.2
2023-04-29T06:31:08.644Z,534.4
2023-04-29T06:32:10.621Z,534.5
2023-04-29T06:33:12.857Z,534.4
2023-04-29T06:34:14.699Z,534.4
2023-04-29T06:35:16.538Z,534.4
2023-04-29T06:36:18.479Z,534.4
2023-04-29T06:37:20.342Z,534.4
2023-04-29T06:38:22.294Z,534.3
2023-04-29T06:39:24.146Z,534.1
2023-04-29T06:40:25.983Z,534.6
2023-04-29T06:41:27.950Z,534.7
2023-04-29T06:42:29.785Z,534.3
2023-04-29T06:43:31.629Z,534.3
2023-04-29T06:44:33.488Z,534.1
2023-04-29T06:45:35.260Z,534
2023-04-29T06:46:37.635Z,534.4
2023-04-29T06:47:39.881Z,534.6
2023-04-29T06:48:41.704Z,534.6
2023-04-29T06:49:43.487Z,534.9
2023-04-29T06:50:45.302Z,534.6
2023-04-29T06:51:47.265Z,534.7
2023-04-29T06:52:49.005Z,534.3
2023-04-29T06:53:50.862Z,534.6
2023-04-29T06:54:52.626Z,534.4
2023-04-29T06:55:54.449Z,534.9
2023-04-29T06:56:56.401Z,534.9
2023-04-29T06:57:58.265Z,534.9
2023-04-29T06:59:00.110Z,535
2023-04-29T07:00:02.066Z,534.7
2023-04-29T07:01:04.297Z,534.6
2023-04-29T07:02:06.286Z,534.9
2023-04-29T07:03:08.724Z,535.2
2023-04-29T07:04:10.948Z,535
2023-04-29T07:05:12.838Z,535
2023-04-29T07:06:14.705Z,535.4
2023-04-29T07:07:16.664Z,535.3
2023-04-29T07:08:18.423Z,535.4
2023-04-29T07:09:20.180Z,535.2
2023-04-29T07:10:22.103Z,535.3
2023-04-29T07:11:24.046Z,535.2
2023-04-29T07:12:25.907Z,535.3
2023-04-29T07:13:27.752Z,535.4
2023-04-29T07:14:32.541Z,535.2
2023-04-29T07:15:34.323Z,535.3
2023-04-29T07:16:36.504Z,535.4
2023-04-29T07:17:38.435Z,535.6
2023-04-29T07:18:40.387Z,535.5
2023-04-29T07:19:42.232Z,535.7
2023-04-29T07:20:44.088Z,536
2023-04-29T07:21:45.932Z,536.2
2023-04-29T07:22:47.778Z,536.3
2023-04-29T07:23:49.608Z,536.6
2023-04-29T07:24:52.206Z,536.4
2023-04-29T07:25:54.154Z,536.4
2023-04-29T07:26:56.015Z,536.4
2023-04-29T07:27:58.064Z,536.4
2023-04-29T07:28:59.797Z,536.3
2023-04-29T07:30:01.768Z,536.3
2023-04-29T07:31:03.916Z,536.2
2023-04-29T07:32:05.759Z,536.2
2023-04-29T07:33:07.846Z,536.3
2023-04-29T07:34:09.696Z,536.4
2023-04-29T07:35:11.484Z,536.2
2023-04-29T07:36:13.358Z,536.2
2023-04-29T07:37:15.411Z,536.4
2023-04-29T07:38:17.270Z,536.5
2023-04-29T07:39:19.116Z,536.4
2023-04-29T07:40:20.971Z,536.3
2023-04-29T07:41:22.829Z,536.2
2023-04-29T07:42:24.764Z,536.2
2023-04-29T07:43:26.622Z,536.4
2023-04-29T07:44:28.460Z,536.3
2023-04-29T07:45:30.346Z,536.4
2023-04-29T07:46:32.431Z,536.2
2023-04-29T07:47:34.313Z,536.1
2023-04-29T07:48:36.168Z,536.2
2023-04-29T07:49:38.122Z,536.2
2023-04-29T07:50:39.982Z,536.4
2023-04-29T07:51:41.761Z,536.6
2023-04-29T07:52:43.552Z,536.8
2023-04-29T07:53:45.426Z,536.7
2023-04-29T07:54:47.203Z,536.7
2023-04-29T07:55:49.025Z,536.7
2023-04-29T07:56:50.869Z,537.1
2023-04-29T07:57:52.641Z,536.8
2023-04-29T07:58:54.370Z,536.9
2023-04-29T07:59:56.328Z,537.4
2023-04-29T08:00:58.191Z,537.3
2023-04-29T08:02:00.124Z,537.6
2023-04-29T08:03:02.682Z,537.8
2023-04-29T08:04:05.355Z,537.4
2023-04-29T08:05:09.358Z,537.7
2023-04-29T08:06:11.661Z,537.8
2023-04-29T08:07:13.871Z,537.5
2023-04-29T08:08:15.738Z,537.3
2023-04-29T08:09:17.570Z,537.7
2023-04-29T08:10:19.320Z,537.3
2023-04-29T08:11:21.261Z,537.5
2023-04-29T08:12:23.133Z,537.7
2023-04-29T08:13:24.986Z,537.2
2023-04-29T08:14:26.946Z,537.7
2023-04-29T08:15:28.880Z,537.6
2023-04-29T08:16:31.608Z,537.5
2023-04-29T08:17:33.536Z,537.8
2023-04-29T08:18:35.350Z,537.6
2023-04-29T08:19:37.314Z,538.1
2023-04-29T08:20:39.162Z,538.4
2023-04-29T08:21:41.103Z,538.3
2023-04-29T08:22:42.964Z,538.3
2023-04-29T08:23:44.803Z,538.4
2023-04-29T08:24:46.695Z,538.6
2023-04-29T08:25:48.504Z,538.8
2023-04-29T08:26:50.361Z,539
2023-04-29T08:27:52.211Z,538.9
2023-04-29T08:28:54.057Z,539
2023-04-29T08:29:56.009Z,539.3
2023-04-29T08:30:57.866Z,539.6
2023-04-29T08:32:00.165Z,539.7
2023-04-29T08:33:02.421Z,539.4
2023-04-29T08:34:04.329Z,539.3
2023-04-29T08:35:06.186Z,539.3
2023-04-29T08:36:08.033Z,539.7
2023-04-29T08:37:10.087Z,539.4
2023-04-29T08:38:11.934Z,539.2
2023-04-29T08:39:13.787Z,539.5
2023-04-29T08:40:15.744Z,539.6
2023-04-29T08:41:17.585Z,539.4
2023-04-29T08:42:19.758Z,539.4
2023-04-29T08:43:21.599Z,539.2
2023-04-29T08:44:23.453Z,539.4
2023-04-29T08:45:25.634Z,539.5
2023-04-29T08:46:27.363Z,539.5
2023-04-29T08:47:29.588Z,539.6
2023-04-29T08:48:31.971Z,540.1
2023-04-29T08:49:33.823Z,540.1
2023-04-29T08:50:35.905Z,540.1
2023-04-29T08:51:37.706Z,539.9
2023-04-29T08:52:39.587Z,540
2023-04-29T08:53:41.548Z,540.5
2023-04-29T08:54:43.215Z,540.4
2023-04-29T08:55:45.238Z,540.1
2023-04-29T08:56:47.081Z,540.4
2023-04-29T08:57:48.873Z,540.6
2023-04-29T08:58:50.686Z,540.8
2023-04-29T08:59:52.640Z,540.9
2023-04-29T09:00:54.816Z,541.3
2023-04-29T09:01:56.641Z,541.4
2023-04-29T09:02:58.948Z,540.8
2023-04-29T09:04:01.590Z,541.2
2023-04-29T09:05:04.341Z,541.4
2023-04-29T09:06:06.270Z,541.6
2023-04-29T09:07:08.208Z,542.2
2023-04-29T09:08:10.468Z,541.8
2023-04-29T09:09:12.206Z,542.1
2023-04-29T09:10:13.843Z,542.2
2023-04-29T09:11:15.660Z,542.2
2023-04-29T09:12:17.496Z,542.3
2023-04-29T09:13:19.450Z,542.2
2023-04-29T09:14:21.293Z,542.8
2023-04-29T09:15:23.043Z,542.5
2023-04-29T09:16:25.108Z,542.7
2023-04-29T09:17:27.172Z,542.9
2023-04-29T09:18:29.335Z,542.7
2023-04-29T09:19:31.177Z,542.9
2023-04-29T09:20:32.946Z,542.8
2023-04-29T09:21:34.755Z,543.2
2023-04-29T09:22:36.577Z,543.1
2023-04-29T09:23:38.464Z,543.3
2023-04-29T09:24:40.209Z,543.5
2023-04-29T09:25:42.063Z,543.3
2023-04-29T09:26:44.327Z,543.6
2023-04-29T09:27:46.167Z,543.6
2023-04-29T09:28:48.219Z,543.7
2023-04-29T09:29:49.930Z,543.6
2023-04-29T09:30:51.827Z,544.1
2023-04-29T09:31:54.137Z,543.9
2023-04-29T09:32:56.213Z,544
2023-04-29T09:33:58.151Z,543.9
2023-04-29T09:35:00.040Z,544.3
2023-04-29T09:36:01.890Z,544.6
2023-04-29T09:37:03.846Z,544.3
2023-04-29T09:38:05.689Z,544.4
2023-04-29T09:39:07.644Z,544.5
2023-04-29T09:40:09.500Z,544.8
2023-04-29T09:41:11.451Z,544.7
2023-04-29T09:42:13.397Z,545
2023-04-29T09:43:15.459Z,544.6
2023-04-29T09:44:17.310Z,545.2
2023-04-29T09:45:18.981Z,545
2023-04-29T09:46:20.823Z,545
2023-04-29T09:47:23.189Z,545
2023-04-29T09:48:25.017Z,545.3
2023-04-29T09:49:26.990Z,545.6
2023-04-29T09:50:28.823Z,545.2
2023-04-29T09:51:30.578Z,545.3
2023-04-29T09:52:32.511Z,545.5
2023-04-29T09:53:34.463Z,545.5
2023-04-29T09:54:39.097Z,545.6
2023-04-29T09:55:40.941Z,545.8
2023-04-29T09:56:42.787Z,545.8
2023-04-29T09:57:45.862Z,546
2023-04-29T09:58:47.713Z,546.1
2023-04-29T09:59:49.540Z,546.4
2023-04-29T10:00:51.417Z,546.7
2023-04-29T10:01:53.896Z,546.8
2023-04-29T10:02:56.375Z,547
2023-04-29T10:03:58.554Z,547.1
2023-04-29T10:05:00.690Z,547.2
2023-04-29T10:06:02.524Z,547.4
2023-04-29T10:07:04.342Z,547.4
2023-04-29T10:08:06.407Z,547.9
2023-04-29T10:09:08.274Z,547.4
2023-04-29T10:10:10.107Z,547.9
2023-04-29T10:11:11.869Z,547.6
2023-04-29T10:12:13.712Z,547.9
2023-04-29T10:13:15.554Z,547.8
2023-04-29T10:14:17.504Z,548
2023-04-29T10:15:19.456Z,548.2
2023-04-29T10:16:21.357Z,548.2
2023-04-29T10:17:23.256Z,547.8
2023-04-29T10:18:25.239Z,548.3
2023-04-29T10:19:27.172Z,548.3
2023-04-29T10:20:29.044Z,548.6
2023-04-29T10:21:30.974Z,548.5
2023-04-29T10:22:32.826Z,548.4
2023-04-29T10:23:34.678Z,548.7
2023-04-29T10:24:36.623Z,548.9
2023-04-29T10:25:38.492Z,548.8
2023-04-29T10:26:40.324Z,549.2
2023-04-29T10:27:42.066Z,549.3
2023-04-29T10:28:44.009Z,549.2
2023-04-29T10:29:46.072Z,549.2
2023-04-29T10:30:47.738Z,549.8
2023-04-29T10:31:49.967Z,550
2023-04-29T10:32:53.695Z,550
2023-04-29T10:33:55.532Z,550.1
2023-04-29T10:34:57.267Z,550.5
2023-04-29T10:35:59.133Z,550.2
2023-04-29T10:37:01.061Z,550.1
2023-04-29T10:38:02.943Z,550
2023-04-29T10:39:04.866Z,549.9
2023-04-29T10:40:06.728Z,549.7
2023-04-29T10:41:08.573Z,550.3
2023-04-29T10:42:10.425Z,550
2023-04-29T10:43:12.266Z,550.2
2023-04-29T10:44:14.118Z,550.3
2023-04-29T10:45:15.889Z,550.3
2023-04-29T10:46:18.075Z,550.5
2023-04-29T10:47:19.980Z,550.4
2023-04-29T10:48:21.759Z,550.4
2023-04-29T10:49:26.252Z,550.2
2023-04-29T10:50:28.121Z,550.4
2023-04-29T10:51:29.955Z,550.5
2023-04-29T10:52:31.665Z,550.4
2023-04-29T10:53:33.533Z,551
2023-04-29T10:54:35.402Z,550.5
2023-04-29T10:55:37.344Z,550.5
2023-04-29T10:56:39.112Z,550.6
2023-04-29T10:57:40.942Z,550.8
2023-04-29T10:58:42.895Z,550.9
2023-04-29T10:59:44.747Z,550.6
2023-04-29T11:00:47.203Z,550.7
2023-04-29T11:01:49.049Z,550.9
2023-04-29T11:02:51.370Z,550.9
2023-04-29T11:03:53.810Z,551.2
2023-04-29T11:04:56.970Z,551.1
2023-04-29T11:05:58.935Z,551.4
2023-04-29T11:07:00.800Z,551.4
2023-04-29T11:08:02.626Z,551.8
2023-04-29T11:09:04.571Z,551.2
2023-04-29T11:10:06.410Z,551.4
2023-04-29T11:11:08.277Z,551.4
2023-04-29T11:12:10.225Z,551.2
2023-04-29T11:13:11.971Z,550.8
2023-04-29T11:14:13.916Z,551.3
2023-04-29T11:15:15.783Z,551.2
2023-04-29T11:16:17.952Z,551.4
2023-04-29T11:17:19.892Z,551.1
2023-04-29T11:18:21.725Z,551.2
2023-04-29T11:19:23.581Z,551.3
2023-04-29T11:20:25.535Z,551.5
2023-04-29T11:21:27.269Z,551.1
2023-04-29T11:22:29.256Z,551.4
2023-04-29T11:23:31.192Z,551.5
2023-04-29T11:24:33.115Z,551.4
2023-04-29T11:25:35.187Z,551.8
2023-04-29T11:26:37.467Z,551.4
2023-04-29T11:27:39.505Z,551.4
2023-04-29T11:28:41.359Z,551.8
2023-04-29T11:29:45.910Z,551.7
2023-04-29T11:30:47.716Z,551.7
2023-04-29T11:31:49.791Z,551.7
2023-04-29T11:32:52.216Z,551.5
2023-04-29T11:33:54.185Z,551.8
2023-04-29T11:34:57.062Z,551.9
2023-04-29T11:35:59.018Z,552.1
2023-04-29T11:37:00.789Z,551.8
2023-04-29T11:38:02.632Z,552.1
2023-04-29T11:39:04.475Z,552
2023-04-29T11:40:06.420Z,552
2023-04-29T11:41:08.258Z,552.6
2023-04-29T11:42:10.195Z,552.2
2023-04-29T11:43:11.962Z,552
2023-04-29T11:44:13.819Z,552.3
2023-04-29T11:45:15.760Z,552.4
2023-04-29T11:46:17.877Z,552.6
2023-04-29T11:47:19.876Z,552.1
2023-04-29T11:48:24.372Z,552.4
2023-04-29T11:49:26.140Z,552
2023-04-29T11:50:28.094Z,551.8
2023-04-29T11:51:32.492Z,552
2023-04-29T11:52:34.367Z,552.3
2023-04-29T11:53:36.263Z,552
2023-04-29T11:54:38.163Z,551.8
2023-04-29T11:55:40.110Z,552.5
2023-04-29T11:56:41.820Z,552.2
2023-04-29T11:57:43.713Z,551.8
2023-04-29T11:58:45.664Z,552.2
2023-04-29T11:59:47.600Z,552.3
2023-04-29T12:00:49.455Z,552.6
2023-04-29T12:01:51.211Z,552.2
2023-04-29T12:02:53.886Z,552.3
2023-04-29T12:03:56.775Z,552.5
2023-04-29T12:05:01.478Z,552.5
2023-04-29T12:06:03.715Z,552.5
2023-04-29T12:07:05.878Z,552.7
2023-04-29T12:08:07.737Z,552.3
2023-04-29T12:09:09.548Z,552.8
2023-04-29T12:10:12.743Z,552.3
2023-04-29T12:11:14.722Z,552.6
2023-04-29T12:12:16.665Z,552.6
2023-04-29T12:13:18.516Z,552.6
2023-04-29T12:14:20.383Z,552.5
2023-04-29T12:15:22.217Z,552.4
2023-04-29T12:16:24.394Z,552.8
2023-04-29T12:17:26.540Z,552.5
2023-04-29T12:18:28.487Z,552.7
2023-04-29T12:19:30.313Z,552.7
2023-04-29T12:20:32.152Z,552.7
2023-04-29T12:21:34.145Z,552.6
2023-04-29T12:22:35.995Z,552.7
2023-04-29T12:23:37.727Z,552.9
2023-04-29T12:24:39.507Z,553
2023-04-29T12:25:41.334Z,553.1
2023-04-29T12:26:43.182Z,552.8
2023-04-29T12:27:45.037Z,552.9
2023-04-29T12:28:46.985Z,553.2
2023-04-29T12:29:49.035Z,553
2023-04-29T12:30:50.961Z,553.5
2023-04-29T12:31:53.691Z,553.5
2023-04-29T12:32:55.810Z,553.4
2023-04-29T12:33:57.644Z,553.6
2023-04-29T12:34:59.450Z,553.5
2023-04-29T12:36:01.249Z,553.6
2023-04-29T12:37:03.026Z,553.9
2023-04-29T12:38:04.960Z,553.7
2023-04-29T12:39:06.709Z,553.8
2023-04-29T12:40:08.483Z,553.8
2023-04-29T12:41:10.306Z,553.4
2023-04-29T12:42:12.168Z,554
2023-04-29T12:43:14.109Z,554
2023-04-29T12:44:15.990Z,554
2023-04-29T12:45:17.697Z,554.4
2023-04-29T12:46:22.571Z,554.4
2023-04-29T12:47:24.494Z,554.3
2023-04-29T12:48:34.319Z,554.5
2023-04-29T12:49:36.166Z,554.5
2023-04-29T12:50:38.019Z,554.6
2023-04-29T12:51:40.181Z,554.6
2023-04-29T12:52:42.019Z,554.6
2023-04-29T12:53:43.870Z,554.7
2023-04-29T12:54:45.733Z,554.7
2023-04-29T12:55:47.592Z,554.6
2023-04-29T12:56:50.441Z,554.9
2023-04-29T12:57:52.210Z,555
2023-04-29T12:58:54.217Z,555
2023-04-29T12:59:56.620Z,554.9
2023-04-29T13:00:59.621Z,555
2023-04-29T13:02:02.606Z,555.2
2023-04-29T13:03:05.705Z,555.3
2023-04-29T13:04:08.220Z,555.4
2023-04-29T13:05:10.184Z,555.5
2023-04-29T13:06:12.030Z,555.5
2023-04-29T13:07:14.089Z,555.6
2023-04-29T13:08:19.774Z,555.5
2023-04-29T13:09:21.549Z,555.5
2023-04-29T13:10:23.409Z,555.5
2023-04-29T13:11:28.737Z,555.5
2023-04-29T13:12:32.230Z,555.5
2023-04-29T13:13:34.173Z,555.5
2023-04-29T13:14:36.037Z,555.2
2023-04-29T13:15:37.856Z,555.4
2023-04-29T13:16:40.074Z,555.6
2023-04-29T13:17:42.827Z,555.3
2023-04-29T13:19:48.035Z,555.3
2023-04-29T13:20:56.585Z,555.4
2023-04-29T13:22:01.062Z,556.1
2023-04-29T13:23:03.020Z,555.8
2023-04-29T13:24:05.053Z,555.9
2023-04-29T13:25:07.012Z,556